Terminal Aerodrome Forecast
Issued by NWS

Home | Current Version | Previous Version | Text Only | Print | Product List | Glossary On
Versions: 1 2 3 4 5 6 7 8 9 10 11 12 13 14
000
FTUS44 KEPZ 012300 CCA
TAFLRU
TAF COR
KLRU 012337Z 0200/0224 22010G17KT P6SM SCT100 BKN220
     FM020100 22010KT P6SM SCT100 BKN200
     FM021000 15008KT P6SM VCSH SCT060 BKN100 OVC200
     FM022100 20012G22KT P6SM -SHRA BKN050 OVC100=

USA.gov is the U.S. government's official web portal to all federal, state and local government web resources and services.